Time;durP1;ratioP1;P1;durP2;ratioP2;P2;SDS_P1;SDS_P2;PMS_P1;PMS_P2;Temp;Humidity;BMP_temperature;BMP_pressure;BME280_temperature;BME280_humidity;BME280_pressure;Samples;Min_cycle;Max_cycle;Signal;HPM_P1;HPM_P2
2022/12/07 12:42:56;;;;;;;9.23;1.80;;;10.10;1.00;;;;;;6203267;22;20804;-42
2022/12/07 12:45:32;;;;;;;6.13;1.73;;;10.70;1.00;;;;;;6214876;23;20216;-42
2022/12/07 12:48:01;;;;;;;4.90;1.50;;;11.20;1.00;;;;;;6215298;23;20898;-42
2022/12/07 12:50:37;;;;;;;7.40;1.80;;;11.50;1.00;;;;;;6215639;23;20374;-44
2022/12/07 12:53:22;;;;;;;6.20;2.17;;;11.40;1.00;;;;;;6214594;23;20501;-41
2022/12/07 12:56:29;;;;;;;12.90;1.67;;;10.80;1.00;;;;;;6214105;23;20692;-41
2022/12/07 12:59:35;;;;;;;8.70;1.83;;;9.60;1.00;;;;;;6205740;23;20865;-42
2022/12/07 13:02:30;;;;;;;16.47;1.80;;;8.70;1.00;;;;;;6214885;23;20397;-42
2022/12/07 13:05:09;;;;;;;4.87;1.70;;;8.40;1.00;;;;;;6214587;23;20373;-42
2022/12/07 13:07:47;;;;;;;6.50;1.67;;;8.30;1.00;;;;;;6214206;23;20377;-43
2022/12/07 13:10:31;;;;;;;9.67;1.70;;;8.20;1.00;;;;;;6214710;23;20365;-41
2022/12/07 13:13:19;;;;;;;6.57;1.60;;;8.10;1.00;;;;;;6214614;23;20421;-41
2022/12/07 13:16:03;;;;;;;4.67;1.80;;;8.50;1.00;;;;;;6215192;23;20428;-41
2022/12/07 13:18:31;;;;;;;3.90;1.30;;;8.60;1.00;;;;;;6214729;23;20869;-41
2022/12/07 13:20:57;;;;;;;8.90;1.53;;;8.50;1.00;;;;;;6214244;23;20378;-42
2022/12/07 13:23:36;;;;;;;11.73;1.80;;;7.80;1.00;;;;;;6214265;23;20361;-41
2022/12/07 13:26:11;;;;;;;9.20;1.47;;;7.10;1.00;;;;;;6214233;23;20146;-41
2022/12/07 13:28:40;;;;;;;5.10;2.47;;;6.50;1.00;;;;;;6213733;23;20428;-43
2022/12/07 13:31:09;;;;;;;8.20;2.03;;;6.00;1.00;;;;;;6214148;23;20792;-41
2022/12/07 13:33:35;;;;;;;9.23;1.50;;;5.70;1.00;;;;;;6213939;23;20456;-41
2022/12/07 13:36:01;;;;;;;12.63;1.67;;;5.40;1.00;;;;;;6215130;23;20378;-41
2022/12/07 13:38:33;;;;;;;6.87;1.80;;;5.30;1.00;;;;;;6214728;23;20359;-42
2022/12/07 13:41:12;;;;;;;11.73;1.70;;;5.30;1.00;;;;;;6213693;23;20654;-41
2022/12/07 13:43:54;;;;;;;2.60;1.20;;;5.30;1.00;;;;;;6213371;23;20445;-41
2022/12/07 13:46:25;;;;;;;3.73;1.50;;;5.30;1.00;;;;;;6214584;23;20792;-42
2022/12/07 13:48:52;;;;;;;9.77;1.93;;;5.20;1.00;;;;;;6214384;23;20674;-40
2022/12/07 13:51:27;;;;;;;5.13;1.40;;;5.10;1.00;;;;;;6214434;23;20440;-42
2022/12/07 13:54:09;;;;;;;4.50;1.50;;;4.90;1.00;;;;;;6213792;23;20413;-41
2022/12/07 13:56:36;;;;;;;6.87;1.33;;;4.90;1.00;;;;;;6213879;23;20406;-41
2022/12/07 13:59:02;;;;;;;5.50;1.30;;;4.80;1.00;;;;;;6213820;23;20382;-41
2022/12/07 14:01:30;;;;;;;5.87;1.40;;;4.90;1.00;;;;;;6213817;23;20377;-40
2022/12/07 14:04:15;;;;;;;1.60;1.23;;;4.70;1.00;;;;;;6214300;23;20378;-41
2022/12/07 14:06:49;;;;;;;7.07;1.27;;;4.70;1.00;;;;;;6214767;23;20796;-41
2022/12/07 14:09:19;;;;;;;4.27;1.40;;;4.60;1.00;;;;;;6214661;23;20366;-41
2022/12/07 14:11:47;;;;;;;5.80;1.30;;;4.50;1.00;;;;;;6214123;23;20384;-40
2022/12/07 14:14:32;;;;;;;2.93;1.10;;;4.40;1.00;;;;;;6213479;23;20880;-40
2022/12/07 14:17:12;;;;;;;9.70;1.57;;;4.40;1.00;;;;;;6213470;23;20423;-53
2022/12/07 14:19:41;;;;;;;6.33;1.57;;;4.30;1.00;;;;;;6214130;23;20415;-40
2022/12/07 14:22:21;;;;;;;4.77;1.60;;;4.30;1.00;;;;;;6214188;23;20383;-41
2022/12/07 14:24:47;;;;;;;4.07;1.50;;;4.30;1.00;;;;;;6213959;23;20844;-41
2022/12/07 14:27:21;;;;;;;3.77;1.37;;;4.20;1.00;;;;;;6214420;23;20369;-41
2022/12/07 14:29:48;;;;;;;6.63;1.70;;;4.10;1.00;;;;;;6214444;23;20157;-41
2022/12/07 14:32:20;;;;;;;5.80;1.50;;;4.00;1.00;;;;;;6213313;23;21259;-41
2022/12/07 14:34:59;;;;;;;4.10;1.57;;;3.90;1.00;;;;;;6212389;23;20373;-41
2022/12/07 14:37:26;;;;;;;4.53;1.53;;;3.80;1.00;;;;;;6214046;23;20356;-41
2022/12/07 14:39:52;;;;;;;3.23;1.30;;;3.80;1.00;;;;;;6214121;23;20362;-40
2022/12/07 14:42:18;;;;;;;7.50;1.60;;;3.70;1.00;;;;;;6214370;23;20748;-41
2022/12/07 14:44:44;;;;;;;5.43;1.63;;;3.60;1.00;;;;;;6214205;23;20221;-41
2022/12/07 14:47:10;;;;;;;15.40;1.80;;;3.50;1.00;;;;;;6213330;23;20382;-40
2022/12/07 14:49:36;;;;;;;3.27;1.20;;;3.50;1.00;;;;;;6212918;23;20370;-40
2022/12/07 14:52:02;;;;;;;4.30;1.43;;;3.40;1.00;;;;;;6213168;23;20424;-41
2022/12/07 14:54:31;;;;;;;7.40;1.57;;;3.20;1.00;;;;;;6213207;23;20139;-41
2022/12/07 14:56:57;;;;;;;6.33;2.03;;;3.10;1.00;;;;;;6214411;23;20862;-41
2022/12/07 14:59:23;;;;;;;6.10;1.30;;;3.00;1.00;;;;;;6213697;23;20453;-40
2022/12/07 15:01:49;;;;;;;3.50;1.50;;;2.90;1.00;;;;;;6213055;23;20508;-40
2022/12/07 15:04:15;;;;;;;9.20;1.90;;;2.80;1.00;;;;;;6213790;23;20139;-41
2022/12/07 15:06:43;;;;;;;4.80;1.40;;;2.70;1.00;;;;;;6213728;23;20389;-41
2022/12/07 15:09:11;;;;;;;7.83;1.53;;;2.70;1.00;;;;;;6213738;23;20174;-42
2022/12/07 15:11:36;;;;;;;5.90;2.00;;;2.60;1.00;;;;;;6213912;23;20365;-41
2022/12/07 15:14:08;;;;;;;10.43;2.03;;;2.60;1.00;;;;;;6212222;23;20428;-41
2022/12/07 15:16:35;;;;;;;4.57;1.80;;;2.50;1.00;;;;;;6213236;23;20139;-41
2022/12/07 15:19:01;;;;;;;5.63;2.10;;;2.50;1.00;;;;;;6213168;23;20428;-40
2022/12/07 15:21:26;;;;;;;10.30;2.20;;;2.50;1.00;;;;;;6213095;23;20681;-40
2022/12/07 15:23:53;;;;;;;4.73;2.30;;;2.40;1.00;;;;;;6213862;23;20486;-40
2022/12/07 15:26:18;;;;;;;9.73;2.47;;;2.40;1.00;;;;;;6213225;23;20509;-41
2022/12/07 15:28:44;;;;;;;8.50;2.33;;;2.40;1.00;;;;;;6213508;23;20429;-40
2022/12/07 15:31:16;;;;;;;9.63;2.30;;;2.30;1.00;;;;;;6213382;23;20160;-41
2022/12/07 15:33:42;;;;;;;8.03;2.07;;;2.30;1.00;;;;;;6213272;23;20225;-40
2022/12/07 15:36:16;;;;;;;6.73;2.57;;;2.20;1.00;;;;;;6212565;23;20354;-40
2022/12/07 15:38:41;;;;;;;3.03;2.17;;;2.20;1.00;;;;;;6178200;23;20413;-41
2022/12/07 15:41:07;;;;;;;7.53;2.30;;;2.10;1.00;;;;;;6212752;23;20670;-39
2022/12/07 15:46:16;;;;;;;5.90;2.80;;;2.10;1.00;;;;;;6211656;23;20153;-39
2022/12/07 15:48:42;;;;;;;6.37;2.37;;;2.00;1.00;;;;;;6210190;23;20377;-40
2022/12/07 15:51:08;;;;;;;5.83;2.30;;;2.00;1.00;;;;;;6213909;23;20150;-41
2022/12/07 15:53:35;;;;;;;5.90;2.20;;;1.90;1.00;;;;;;6212964;23;20510;-40
2022/12/07 15:56:01;;;;;;;5.17;2.53;;;1.90;1.00;;;;;;6212379;23;20370;-39
2022/12/07 15:58:27;;;;;;;6.13;2.50;;;1.80;1.00;;;;;;6212959;23;20376;-39
2022/12/07 16:00:52;;;;;;;19.40;3.67;;;1.80;1.00;;;;;;6212997;23;20417;-39
2022/12/07 16:03:18;;;;;;;6.23;2.40;;;1.70;1.00;;;;;;6214520;23;20242;-39
2022/12/07 16:05:49;;;;;;;7.93;2.97;;;1.70;1.00;;;;;;6214704;23;20561;-40
2022/12/07 16:08:15;;;;;;;6.90;2.70;;;1.60;1.00;;;;;;6214817;23;20574;-40
2022/12/07 16:10:43;;;;;;;13.53;3.00;;;1.60;1.00;;;;;;6214636;23;20365;-38
2022/12/07 16:13:09;;;;;;;7.70;2.30;;;1.60;1.00;;;;;;6214913;23;20170;-39
2022/12/07 16:15:41;;;;;;;10.73;3.10;;;1.60;1.00;;;;;;6215329;23;20390;-39
2022/12/07 16:18:07;;;;;;;8.97;3.23;;;1.60;1.00;;;;;;6215531;23;20372;-39
2022/12/07 16:20:33;;;;;;;4.00;2.50;;;1.60;1.00;;;;;;6214843;23;20437;-41
2022/12/07 16:22:58;;;;;;;9.03;2.77;;;1.60;1.00;;;;;;6215218;23;20426;-39
2022/12/07 16:25:24;;;;;;;7.30;3.00;;;1.50;1.00;;;;;;6215580;23;20297;-39
2022/12/07 16:27:51;;;;;;;7.73;2.40;;;1.50;3.80;;;;;;6215308;23;20147;-39
2022/12/07 16:30:17;;;;;;;12.43;2.90;;;1.50;6.50;;;;;;6215437;23;20208;-39
2022/12/07 16:32:42;;;;;;;5.77;2.50;;;1.50;13.10;;;;;;6188327;23;20429;-39
2022/12/07 16:35:09;;;;;;;10.33;3.30;;;1.50;22.80;;;;;;6214743;23;20162;-40
2022/12/07 16:37:35;;;;;;;13.63;3.00;;;1.50;28.30;;;;;;6215558;23;20588;-40
2022/12/07 16:40:00;;;;;;;6.70;3.00;;;1.50;24.10;;;;;;6214660;23;20369;-40
2022/12/07 16:42:26;;;;;;;8.13;2.80;;;1.50;19.70;;;;;;6215212;23;20165;-40
2022/12/07 16:44:52;;;;;;;8.90;3.10;;;1.50;19.90;;;;;;6214901;23;20206;-40
2022/12/07 16:47:17;;;;;;;8.20;3.50;;;1.50;18.00;;;;;;6214500;23;20162;-39
2022/12/07 16:49:43;;;;;;;13.70;3.23;;;1.40;15.70;;;;;;6214549;23;20151;-40
2022/12/07 16:52:09;;;;;;;14.93;3.33;;;1.40;15.50;;;;;;6214902;23;20173;-39
2022/12/07 16:54:36;;;;;;;7.53;2.90;;;1.40;15.50;;;;;;6214365;23;20154;-40
2022/12/07 16:57:01;;;;;;;5.13;2.40;;;1.40;10.80;;;;;;6212298;23;20154;-40
2022/12/07 16:59:27;;;;;;;7.80;2.60;;;1.40;8.80;;;;;;6212589;23;20373;-39
2022/12/07 17:01:52;;;;;;;7.13;3.00;;;1.40;3.60;;;;;;6213294;23;20138;-39
2022/12/07 17:04:18;;;;;;;5.20;2.90;;;1.40;1.00;;;;;;6214198;23;20923;-39
2022/12/07 17:06:43;;;;;;;6.40;2.40;;;1.40;1.00;;;;;;6214137;23;20162;-39
2022/12/07 17:09:09;;;;;;;9.43;2.67;;;1.40;1.50;;;;;;6214529;23;20650;-39
2022/12/07 17:11:35;;;;;;;6.10;3.10;;;1.50;1.00;;;;;;6213986;23;20460;-40
2022/12/07 17:16:46;;;;;;;8.00;2.87;;;1.40;1.00;;;;;;6214538;23;20408;-40
2022/12/07 17:19:14;;;;;;;8.90;3.07;;;1.40;1.00;;;;;;6214670;23;20424;-40
2022/12/07 17:21:40;;;;;;;9.23;3.10;;;1.40;1.00;;;;;;6214835;23;20525;-41
2022/12/07 17:24:08;;;;;;;11.23;2.80;;;1.40;1.00;;;;;;6214738;23;20469;-40
2022/12/07 17:26:34;;;;;;;7.63;2.70;;;1.40;1.00;;;;;;6211190;23;20789;-41
2022/12/07 17:29:00;;;;;;;6.03;2.57;;;1.40;1.00;;;;;;6210368;23;20424;-40
2022/12/07 17:31:25;;;;;;;6.63;3.13;;;1.40;1.00;;;;;;6214839;23;20231;-41
2022/12/07 17:33:51;;;;;;;11.30;2.60;;;1.40;1.00;;;;;;6213893;23;20174;-40
2022/12/07 17:36:18;;;;;;;4.50;2.50;;;1.30;1.00;;;;;;6214081;23;20146;-39
2022/12/07 17:38:44;;;;;;;6.27;2.60;;;1.30;1.00;;;;;;6213331;23;20182;-40
